createdAt,value
2022-09-15T00:00:56.819Z,100198.19
2022-09-15T00:03:23.825Z,100197.44
2022-09-15T00:05:51.840Z,100199.53
2022-09-15T00:08:18.182Z,100195.72
2022-09-15T00:10:57.342Z,100198.34
2022-09-15T00:13:24.835Z,100192.53
2022-09-15T00:15:51.575Z,100201.28
2022-09-15T00:18:18.283Z,100199.69
2022-09-15T00:20:45.489Z,100198.06
2022-09-15T00:23:14.386Z,100203.34
2022-09-15T00:25:42.968Z,100203.34
2022-09-15T00:28:09.353Z,100198.47
2022-09-15T00:30:41.167Z,100199.25
2022-09-15T00:33:07.669Z,100194.75
2022-09-15T00:35:46.334Z,100192.75
2022-09-15T00:38:14.142Z,100192.53
2022-09-15T00:40:52.542Z,100193.94
2022-09-15T00:43:21.960Z,100197.72
2022-09-15T00:45:48.620Z,100200.63
2022-09-15T00:48:21.747Z,100200.63
2022-09-15T00:50:53.762Z,100191.66
2022-09-15T00:53:21.039Z,100200.03
2022-09-15T00:55:50.578Z,100199.72
2022-09-15T00:58:24.057Z,100211.56
2022-09-15T01:01:01.987Z,100213.97
2022-09-15T01:03:32.514Z,100203.97
2022-09-15T01:06:09.457Z,100204.84
2022-09-15T01:09:12.918Z,100202.00
2022-09-15T01:11:40.895Z,100198.19
2022-09-15T01:14:08.027Z,100196.22
2022-09-15T01:17:03.966Z,100190.09
2022-09-15T01:19:45.466Z,100202.31
2022-09-15T01:22:14.852Z,100201.88
2022-09-15T01:25:06.053Z,100200.28
2022-09-15T01:27:58.519Z,100205.22
2022-09-15T01:30:25.942Z,100200.16
2022-09-15T01:33:08.658Z,100201.75
2022-09-15T01:35:35.085Z,100199.34
2022-09-15T01:38:19.891Z,100200.75
2022-09-15T01:41:19.071Z,100199.19
2022-09-15T01:44:06.412Z,100195.72
2022-09-15T01:46:37.214Z,100196.94
2022-09-15T01:49:06.879Z,100200.41
2022-09-15T01:51:35.688Z,100194.53
2022-09-15T01:54:05.554Z,100197.16
2022-09-15T01:56:32.030Z,100194.91
2022-09-15T01:58:58.628Z,100201.22
2022-09-15T02:01:32.928Z,100199.22
2022-09-15T02:04:05.239Z,100196.38
2022-09-15T02:06:39.709Z,100201.66
2022-09-15T02:09:13.586Z,100206.53
2022-09-15T02:11:57.815Z,100200.03
2022-09-15T02:14:51.532Z,100212.81
2022-09-15T02:17:21.123Z,100211.00
2022-09-15T02:19:56.252Z,100204.91
2022-09-15T02:22:29.752Z,100204.75
2022-09-15T02:25:08.043Z,100204.16
2022-09-15T02:27:40.112Z,100200.88
2022-09-15T02:30:11.731Z,100202.72
2022-09-15T02:32:42.144Z,100204.16
2022-09-15T02:35:09.964Z,100210.66
2022-09-15T02:37:38.491Z,100201.53
2022-09-15T02:40:06.414Z,100204.34
2022-09-15T02:42:33.130Z,100211.88
2022-09-15T02:45:00.929Z,100208.81
2022-09-15T02:47:28.531Z,100212.66
2022-09-15T02:49:55.658Z,100210.41
2022-09-15T02:52:22.192Z,100213.44
2022-09-15T02:54:49.014Z,100211.84
2022-09-15T02:57:15.435Z,100211.47
2022-09-15T03:00:00.717Z,100209.59
2022-09-15T03:02:27.348Z,100204.53
2022-09-15T03:04:53.807Z,100209.00
2022-09-15T03:07:20.256Z,100205.16
2022-09-15T03:09:46.598Z,100210.41
2022-09-15T03:12:13.739Z,100195.41
2022-09-15T03:14:40.090Z,100189.53
2022-09-15T03:17:06.450Z,100196.41
2022-09-15T03:19:32.867Z,100204.53
2022-09-15T03:21:59.223Z,100222.00
2022-09-15T03:24:25.731Z,100225.41
2022-09-15T03:26:52.089Z,100231.72
2022-09-15T03:29:18.480Z,100224.81
2022-09-15T03:31:44.908Z,100220.75
2022-09-15T03:34:11.493Z,100219.53
2022-09-15T03:36:38.162Z,100230.72
2022-09-15T03:39:04.657Z,100223.44
2022-09-15T03:41:31.058Z,100231.34
2022-09-15T03:43:57.671Z,100229.13
2022-09-15T03:46:24.077Z,100230.72
2022-09-15T03:48:50.502Z,100226.66
2022-09-15T03:51:16.864Z,100235.81
2022-09-15T03:53:43.225Z,100236.63
2022-09-15T03:56:31.425Z,100235.41
2022-09-15T03:58:59.127Z,100239.66
2022-09-15T04:01:25.805Z,100237.03
2022-09-15T04:03:52.501Z,100228.28
2022-09-15T04:06:21.081Z,100227.47
2022-09-15T04:08:51.457Z,100223.22
2022-09-15T04:11:19.576Z,100222.19
2022-09-15T04:13:46.909Z,100227.25
2022-09-15T04:16:16.720Z,100226.84
2022-09-15T04:18:43.715Z,100228.06
2022-09-15T04:21:15.878Z,100228.25
2022-09-15T04:23:43.431Z,100226.00
2022-09-15T04:26:18.997Z,100231.09
2022-09-15T04:28:45.479Z,100221.13
2022-09-15T04:31:14.174Z,100223.94
2022-09-15T04:33:42.657Z,100224.38
2022-09-15T04:36:12.848Z,100219.72
2022-09-15T04:38:39.492Z,100225.16
2022-09-15T04:41:06.520Z,100225.59
2022-09-15T04:43:33.470Z,100224.75
2022-09-15T04:45:59.826Z,100228.38
2022-09-15T04:48:27.003Z,100225.31
2022-09-15T04:50:53.889Z,100219.03
2022-09-15T04:53:20.636Z,100225.09
2022-09-15T04:55:46.974Z,100221.69
2022-09-15T04:58:13.379Z,100228.78
2022-09-15T05:00:43.349Z,100234.88
2022-09-15T05:03:10.747Z,100226.72
2022-09-15T05:05:37.562Z,100225.53
2022-09-15T05:08:04.106Z,100227.91
2022-09-15T05:10:30.988Z,100234.81
2022-09-15T05:12:57.321Z,100226.66
2022-09-15T05:15:24.181Z,100228.84
2022-09-15T05:17:51.166Z,100233.75
2022-09-15T05:20:18.310Z,100230.72
2022-09-15T05:22:45.157Z,100238.44
2022-09-15T05:25:11.534Z,100245.38
2022-09-15T05:27:39.304Z,100247.41
2022-09-15T05:30:32.727Z,100247.59
2022-09-15T05:32:53.935Z,100252.03
2022-09-15T05:35:20.335Z,100249.59
2022-09-15T05:37:46.996Z,100250.56
2022-09-15T05:40:13.536Z,100252.00
2022-09-15T05:42:40.350Z,100253.91
2022-09-15T05:45:07.568Z,100255.47
2022-09-15T05:47:34.045Z,100252.81
2022-09-15T05:50:00.365Z,100257.22
2022-09-15T05:52:26.742Z,100260.47
2022-09-15T05:54:57.020Z,100262.50
2022-09-15T05:57:25.508Z,100265.94
2022-09-15T05:59:51.861Z,100259.44
2022-09-15T06:02:18.304Z,100261.84
2022-09-15T06:04:44.683Z,100261.03
2022-09-15T06:07:11.237Z,100257.34
2022-09-15T06:09:38.099Z,100269.50
2022-09-15T06:12:04.869Z,100267.44
2022-09-15T06:14:31.184Z,100260.50
2022-09-15T06:16:57.559Z,100259.59
2022-09-15T06:19:23.918Z,100270.38
2022-09-15T06:21:50.960Z,100275.44
2022-09-15T06:24:17.348Z,100273.78
2022-09-15T06:26:43.993Z,100277.41
2022-09-15T06:29:11.997Z,100279.22
2022-09-15T06:31:38.550Z,100280.22
2022-09-15T06:34:05.444Z,100280.16
2022-09-15T06:36:32.746Z,100277.66
2022-09-15T06:38:59.353Z,100281.06
2022-09-15T06:41:38.286Z,100269.00
2022-09-15T06:44:13.717Z,100274.72
2022-09-15T06:46:40.113Z,100282.03
2022-09-15T06:49:07.017Z,100283.25
2022-09-15T06:51:35.566Z,100285.59
2022-09-15T06:54:03.123Z,100293.72
2022-09-15T06:56:33.419Z,100294.31
2022-09-15T06:59:03.666Z,100292.38
2022-09-15T07:01:31.914Z,100300.66
2022-09-15T07:04:01.001Z,100295.72
2022-09-15T07:06:28.785Z,100296.75
2022-09-15T07:08:55.201Z,100301.84
2022-09-15T07:11:21.526Z,100298.13
2022-09-15T07:13:49.092Z,100301.97
2022-09-15T07:16:15.631Z,100298.72
2022-09-15T07:18:43.442Z,100300.13
2022-09-15T07:21:19.943Z,100296.69
2022-09-15T07:23:47.627Z,100305.22
2022-09-15T07:26:23.819Z,100309.03
2022-09-15T07:29:01.439Z,100306.81
2022-09-15T07:31:31.127Z,100302.09
2022-09-15T07:33:59.820Z,100320.91
2022-09-15T07:36:26.280Z,100327.31
2022-09-15T07:38:52.816Z,100325.31
2022-09-15T07:41:24.963Z,100329.59
2022-09-15T07:43:53.639Z,100328.84
2022-09-15T07:46:21.787Z,100334.47
2022-09-15T07:48:53.018Z,100340.47
2022-09-15T07:51:19.567Z,100347.34
2022-09-15T07:53:47.662Z,100345.19
2022-09-15T07:56:14.384Z,100348.69
2022-09-15T07:58:40.899Z,100349.56
2022-09-15T08:01:11.491Z,100349.56
2022-09-15T08:03:49.166Z,100356.09
2022-09-15T08:06:17.417Z,100357.97
2022-09-15T08:08:44.089Z,100359.13
2022-09-15T08:11:18.408Z,100361.63
2022-09-15T08:13:46.724Z,100359.63
2022-09-15T08:16:16.121Z,100360.44
2022-09-15T08:18:43.593Z,100361.31
2022-09-15T08:21:15.276Z,100374.94
2022-09-15T08:23:42.114Z,100373.78
2022-09-15T08:26:13.822Z,100371.13
2022-09-15T08:28:41.371Z,100383.63
2022-09-15T08:31:11.305Z,100386.94
2022-09-15T08:33:41.825Z,100387.88
2022-09-15T08:36:11.427Z,100383.97
2022-09-15T08:38:42.387Z,100389.16
2022-09-15T08:41:19.800Z,100387.81
2022-09-15T08:43:59.280Z,100390.00
2022-09-15T08:47:01.125Z,100392.13
2022-09-15T08:49:51.650Z,100392.19
2022-09-15T08:52:33.617Z,100392.06
2022-09-15T08:55:05.844Z,100397.78
2022-09-15T08:57:32.334Z,100400.88
2022-09-15T08:59:59.598Z,100405.50
2022-09-15T09:02:44.857Z,100400.09
2022-09-15T09:05:29.422Z,100404.84
2022-09-15T09:08:14.354Z,100402.81
2022-09-15T09:10:51.728Z,100404.72
2022-09-15T09:13:47.216Z,100409.97
2022-09-15T09:16:22.785Z,100412.91
2022-09-15T09:18:55.332Z,100405.97
2022-09-15T09:21:31.032Z,100405.34
2022-09-15T09:24:12.437Z,100403.31
2022-09-15T09:26:39.877Z,100407.84
2022-09-15T09:29:20.904Z,100402.84
2022-09-15T09:31:50.583Z,100410.34
2022-09-15T09:34:28.826Z,100408.50
2022-09-15T09:37:00.405Z,100415.66
2022-09-15T09:39:28.244Z,100408.84
2022-09-15T09:41:55.117Z,100404.00
2022-09-15T09:44:31.654Z,100410.75
2022-09-15T09:46:59.204Z,100408.25
2022-09-15T09:49:31.406Z,100414.78
2022-09-15T09:52:02.183Z,100411.16
2022-09-15T09:54:31.079Z,100414.41
2022-09-15T09:57:28.648Z,100415.22
2022-09-15T09:59:55.478Z,100414.81
2022-09-15T10:02:24.917Z,100405.50
2022-09-15T10:05:05.719Z,100402.69
2022-09-15T10:07:34.105Z,100397.34
2022-09-15T10:10:01.859Z,100402.84
2022-09-15T10:12:38.314Z,100406.31
2022-09-15T10:15:07.931Z,100402.84
2022-09-15T10:17:41.611Z,100401.31
2022-09-15T10:20:28.208Z,100402.22
2022-09-15T10:23:05.328Z,100409.16
2022-09-15T10:25:55.225Z,100402.91
2022-09-15T10:28:23.949Z,100405.88
2022-09-15T10:30:58.998Z,100413.31
2022-09-15T10:33:31.138Z,100400.81
2022-09-15T10:36:15.271Z,100398.72
2022-09-15T10:38:52.087Z,100400.63
2022-09-15T10:41:28.779Z,100407.50
2022-09-15T10:44:13.965Z,100399.31
2022-09-15T10:47:08.392Z,100401.28
2022-09-15T10:49:47.512Z,100397.28
2022-09-15T10:52:22.896Z,100384.47
2022-09-15T10:55:07.330Z,100390.88
2022-09-15T10:57:36.896Z,100380.94
2022-09-15T11:00:18.800Z,100386.50
2022-09-15T11:03:10.042Z,100391.84
2022-09-15T11:05:48.830Z,100405.09
2022-09-15T11:08:39.642Z,100406.78
2022-09-15T11:11:06.073Z,100412.09
2022-09-15T11:13:50.998Z,100406.50
2022-09-15T11:16:34.433Z,100405.84
2022-09-15T11:19:12.759Z,100410.91
2022-09-15T11:21:51.872Z,100407.31
2022-09-15T11:24:39.591Z,100408.09
2022-09-15T11:27:36.157Z,100415.56
2022-09-15T11:30:20.089Z,100414.16
2022-09-15T11:32:55.633Z,100405.22
2022-09-15T11:35:36.662Z,100414.84
2022-09-15T11:38:15.193Z,100416.13
2022-09-15T11:40:50.527Z,100415.69
2022-09-15T11:43:41.039Z,100412.44
2022-09-15T11:46:15.359Z,100419.69
2022-09-15T11:48:56.095Z,100425.91
2022-09-15T11:51:26.395Z,100421.66
2022-09-15T11:54:03.254Z,100422.81
2022-09-15T11:56:44.006Z,100426.78
2022-09-15T11:59:51.195Z,100427.81
2022-09-15T12:03:05.421Z,100428.97
2022-09-15T12:05:38.700Z,100417.41
2022-09-15T12:08:24.014Z,100424.22
2022-09-15T12:10:54.730Z,100427.81
2022-09-15T12:13:24.198Z,100426.34
2022-09-15T12:15:51.551Z,100427.16
2022-09-15T12:18:38.948Z,100430.97
2022-09-15T12:21:22.742Z,100430.06
2022-09-15T12:23:58.379Z,100428.44
2022-09-15T12:26:26.686Z,100434.72
2022-09-15T12:28:58.667Z,100434.53
2022-09-15T12:31:34.367Z,100438.91
2022-09-15T12:34:34.502Z,100437.31
2022-09-15T12:37:15.063Z,100440.47
2022-09-15T12:39:46.474Z,100438.50
2022-09-15T12:42:18.814Z,100435.59
2022-09-15T12:44:55.738Z,100455.28
2022-09-15T12:47:39.128Z,100450.28
2022-09-15T12:50:30.834Z,100459.41
2022-09-15T12:53:05.573Z,100450.75
2022-09-15T12:55:36.336Z,100460.13
2022-09-15T12:58:15.857Z,100456.31
2022-09-15T13:01:00.662Z,100464.53
2022-09-15T13:06:10.151Z,100467.75
2022-09-15T13:08:36.498Z,100464.41
2022-09-15T13:11:19.764Z,100473.78
2022-09-15T13:14:12.664Z,100478.28
2022-09-15T13:16:48.072Z,100471.31
2022-09-15T13:19:23.469Z,100470.75
2022-09-15T13:22:30.022Z,100462.84
2022-09-15T13:25:02.215Z,100458.66
2022-09-15T13:27:42.257Z,100462.47
2022-09-15T13:30:21.200Z,100454.50
2022-09-15T13:32:59.508Z,100457.94
2022-09-15T13:35:26.675Z,100461.88
2022-09-15T13:38:13.967Z,100452.13
2022-09-15T13:41:03.623Z,100442.19
2022-09-15T13:44:04.663Z,100453.16
2022-09-15T13:46:56.391Z,100443.91
2022-09-15T13:49:48.861Z,100446.31
2022-09-15T13:52:18.331Z,100440.91
2022-09-15T13:55:26.247Z,100446.72
2022-09-15T14:00:53.537Z,100436.41
2022-09-15T14:03:25.844Z,100439.09
2022-09-15T14:05:53.904Z,100440.59
2022-09-15T14:08:33.316Z,100438.03
2022-09-15T14:11:06.759Z,100432.03
2022-09-15T14:13:37.406Z,100433.72
2022-09-15T14:16:11.891Z,100435.97
2022-09-15T14:18:44.833Z,100435.84
2022-09-15T14:21:19.771Z,100438.03
2022-09-15T14:23:55.042Z,100447.75
2022-09-15T14:26:24.748Z,100436.19
2022-09-15T14:28:56.942Z,100433.50
2022-09-15T14:31:38.565Z,100435.94
2022-09-15T14:34:34.345Z,100433.88
2022-09-15T14:37:07.194Z,100428.09
2022-09-15T14:39:34.192Z,100429.25
2022-09-15T14:42:09.359Z,100430.84
2022-09-15T14:47:28.500Z,100429.25
2022-09-15T14:50:13.442Z,100433.75
2022-09-15T14:52:46.452Z,100430.50
2022-09-15T14:55:18.862Z,100423.22
2022-09-15T14:57:53.607Z,100425.06
2022-09-15T15:00:24.415Z,100433.97
2022-09-15T15:02:59.954Z,100425.16
2022-09-15T15:05:32.981Z,100428.50
2022-09-15T15:08:02.279Z,100432.81
2022-09-15T15:10:35.493Z,100437.78
2022-09-15T15:13:08.902Z,100428.25
2022-09-15T15:15:38.192Z,100430.72
2022-09-15T15:18:06.254Z,100430.41
2022-09-15T15:20:32.899Z,100426.09
2022-09-15T15:23:23.727Z,100429.69
2022-09-15T15:25:51.147Z,100432.00
2022-09-15T15:28:35.776Z,100432.25
2022-09-15T15:31:22.965Z,100431.28
2022-09-15T15:34:14.594Z,100425.59
2022-09-15T15:36:41.021Z,100432.44
2022-09-15T15:39:18.424Z,100430.47
2022-09-15T15:41:44.886Z,100426.19
2022-09-15T15:44:17.189Z,100432.69
2022-09-15T15:46:50.185Z,100428.75
2022-09-15T15:49:17.951Z,100426.91
2022-09-15T15:51:44.794Z,100426.44
2022-09-15T15:54:11.173Z,100429.56
2022-09-15T15:56:38.132Z,100434.97
2022-09-15T15:59:05.717Z,100432.69
2022-09-15T16:01:33.146Z,100436.50
2022-09-15T16:03:59.522Z,100432.69
2022-09-15T16:06:26.222Z,100435.16
2022-09-15T16:08:52.751Z,100442.84
2022-09-15T16:11:20.795Z,100443.09
2022-09-15T16:13:48.226Z,100439.84
2022-09-15T16:16:17.988Z,100435.16
2022-09-15T16:18:44.488Z,100437.59
2022-09-15T16:21:18.238Z,100438.03
2022-09-15T16:23:45.819Z,100438.03
2022-09-15T16:26:20.589Z,100438.28
2022-09-15T16:28:46.989Z,100432.50
2022-09-15T16:31:14.694Z,100431.91
2022-09-15T16:33:42.854Z,100430.75
2022-09-15T16:36:13.990Z,100421.59
2022-09-15T16:38:41.238Z,100433.41
2022-09-15T16:41:16.939Z,100431.44
2022-09-15T16:43:44.555Z,100438.41
2022-09-15T16:46:12.125Z,100440.25
2022-09-15T16:48:39.409Z,100445.31
2022-09-15T16:51:23.425Z,100442.31
2022-09-15T16:53:53.680Z,100447.75
2022-09-15T16:56:20.057Z,100451.34
2022-09-15T16:58:46.438Z,100445.50
2022-09-15T17:01:18.225Z,100446.31
2022-09-15T17:03:44.869Z,100448.75
2022-09-15T17:06:13.624Z,100454.41
2022-09-15T17:08:40.604Z,100459.16
2022-09-15T17:11:16.276Z,100453.25
2022-09-15T17:13:43.563Z,100452.53
2022-09-15T17:16:10.535Z,100457.03
2022-09-15T17:18:36.961Z,100464.34
2022-09-15T17:21:03.623Z,100464.53
2022-09-15T17:23:39.026Z,100470.78
2022-09-15T17:26:10.547Z,100469.16
2022-09-15T17:28:37.156Z,100465.91
2022-09-15T17:31:21.475Z,100458.25
2022-09-15T17:33:48.776Z,100462.41
2022-09-15T17:36:16.071Z,100466.91
2022-09-15T17:38:42.644Z,100464.34
2022-09-15T17:41:14.711Z,100465.97
2022-09-15T17:43:41.149Z,100468.06
2022-09-15T17:46:08.776Z,100468.81
2022-09-15T17:48:38.494Z,100476.78
2022-09-15T17:51:06.216Z,100474.13
2022-09-15T17:53:32.662Z,100473.78
2022-09-15T17:55:59.032Z,100471.56
2022-09-15T17:58:26.698Z,100471.91
2022-09-15T18:00:53.838Z,100466.41
2022-09-15T18:03:33.247Z,100468.91
2022-09-15T18:06:05.818Z,100471.88
2022-09-15T18:08:33.103Z,100471.88
2022-09-15T18:11:00.519Z,100478.44
2022-09-15T18:13:28.387Z,100473.13
2022-09-15T18:15:55.059Z,100479.63
2022-09-15T18:18:30.372Z,100489.50
2022-09-15T18:20:57.945Z,100487.53
2022-09-15T18:23:26.721Z,100485.59
2022-09-15T18:25:53.080Z,100487.59
2022-09-15T18:28:20.125Z,100494.53
2022-09-15T18:30:48.938Z,100491.50
2022-09-15T18:33:19.236Z,100501.47
2022-09-15T18:35:46.610Z,100503.53
2022-09-15T18:38:13.609Z,100499.56
2022-09-15T18:40:45.297Z,100499.94
2022-09-15T18:43:12.001Z,100495.69
2022-09-15T18:45:39.694Z,100492.19
2022-09-15T18:48:10.440Z,100496.31
2022-09-15T18:50:39.379Z,100492.78
2022-09-15T18:53:05.844Z,100503.25
2022-09-15T18:55:32.616Z,100495.50
2022-09-15T18:58:00.953Z,100497.94
2022-09-15T19:00:28.659Z,100499.63
2022-09-15T19:02:59.728Z,100508.59
2022-09-15T19:05:27.521Z,100508.25
2022-09-15T19:07:55.332Z,100513.56
2022-09-15T19:10:22.058Z,100514.13
2022-09-15T19:12:48.462Z,100513.16
2022-09-15T19:15:15.581Z,100516.41
2022-09-15T19:17:42.660Z,100511.63
2022-09-15T19:20:12.515Z,100515.28
2022-09-15T19:22:39.548Z,100526.38
2022-09-15T19:25:07.714Z,100524.13
2022-09-15T19:27:34.201Z,100530.03
2022-09-15T19:30:00.946Z,100528.03
2022-09-15T19:32:27.488Z,100533.13
2022-09-15T19:34:53.848Z,100530.16
2022-09-15T19:37:21.602Z,100537.53
2022-09-15T19:39:48.534Z,100531.84
2022-09-15T19:44:47.895Z,100527.22
2022-09-15T19:47:14.412Z,100530.50
2022-09-15T19:49:40.744Z,100537.53
2022-09-15T19:52:07.365Z,100540.59
2022-09-15T19:54:34.626Z,100545.84
2022-09-15T19:57:02.083Z,100548.47
2022-09-15T19:59:31.542Z,100547.94
2022-09-15T20:01:59.561Z,100550.00
2022-09-15T20:04:27.019Z,100560.47
2022-09-15T20:06:53.442Z,100560.25
2022-09-15T20:09:19.970Z,100562.53
2022-09-15T20:11:46.474Z,100556.69
2022-09-15T20:14:13.500Z,100557.25
2022-09-15T20:16:40.096Z,100563.34
2022-09-15T20:19:06.656Z,100559.47
2022-09-15T20:21:51.752Z,100563.97
2022-09-15T20:24:19.895Z,100560.25
2022-09-15T20:26:47.236Z,100559.50
2022-09-15T20:29:14.357Z,100571.13
2022-09-15T20:31:40.930Z,100578.13
2022-09-15T20:34:07.421Z,100577.94
2022-09-15T20:36:36.644Z,100573.47
2022-09-15T20:39:05.998Z,100577.19
2022-09-15T20:41:32.649Z,100585.59
2022-09-15T20:43:59.111Z,100583.34
2022-09-15T20:46:26.536Z,100586.38
2022-09-15T20:48:53.178Z,100585.38
2022-09-15T20:51:22.849Z,100586.22
2022-09-15T20:53:51.624Z,100586.63
2022-09-15T20:56:21.150Z,100589.91
2022-09-15T20:58:47.833Z,100591.59
2022-09-15T21:01:19.301Z,100594.25
2022-09-15T21:03:46.333Z,100588.16
2022-09-15T21:06:15.408Z,100590.81
2022-09-15T21:08:41.918Z,100586.75
2022-09-15T21:11:12.597Z,100585.53
2022-09-15T21:13:41.281Z,100586.78
2022-09-15T21:16:10.710Z,100587.78
2022-09-15T21:18:39.797Z,100590.63
2022-09-15T21:21:10.187Z,100589.63
2022-09-15T21:23:41.859Z,100593.50
2022-09-15T21:26:13.649Z,100593.28
2022-09-15T21:28:40.494Z,100591.44
2022-09-15T21:31:16.143Z,100595.53
2022-09-15T21:33:44.018Z,100593.28
2022-09-15T21:36:17.956Z,100598.56
2022-09-15T21:38:44.672Z,100604.28
2022-09-15T21:41:14.011Z,100596.94
2022-09-15T21:43:41.898Z,100610.78
2022-09-15T21:46:11.929Z,100594.69
2022-09-15T21:48:38.808Z,100609.97
2022-09-15T21:51:06.767Z,100608.75
2022-09-15T21:53:35.000Z,100601.63
2022-09-15T21:56:03.662Z,100605.91
2022-09-15T21:58:39.026Z,100601.44
2022-09-15T22:01:12.508Z,100603.69
2022-09-15T22:03:43.484Z,100605.72
2022-09-15T22:06:11.699Z,100610.81
2022-09-15T22:08:41.661Z,100616.72
2022-09-15T22:11:09.403Z,100610.59
2022-09-15T22:13:39.772Z,100612.41
2022-09-15T22:16:10.262Z,100609.63
2022-09-15T22:18:38.403Z,100608.78
2022-09-15T22:21:22.348Z,100609.59
2022-09-15T22:23:50.089Z,100613.84
2022-09-15T22:26:19.047Z,100612.25
2022-09-15T22:28:46.049Z,100612.63
2022-09-15T22:31:14.751Z,100617.94
2022-09-15T22:33:42.279Z,100605.75
2022-09-15T22:36:11.106Z,100603.13
2022-09-15T22:38:38.173Z,100611.66
2022-09-15T22:41:06.989Z,100616.13
2022-09-15T22:43:33.580Z,100616.97
2022-09-15T22:46:00.150Z,100608.44
2022-09-15T22:48:27.140Z,100616.53
2022-09-15T22:50:53.956Z,100612.88
2022-09-15T22:53:21.670Z,100615.31
2022-09-15T22:55:48.074Z,100611.47
2022-09-15T22:58:14.449Z,100604.38
2022-09-15T23:00:40.801Z,100604.38
2022-09-15T23:03:07.459Z,100599.22
2022-09-15T23:05:34.605Z,100586.44
2022-09-15T23:08:01.120Z,100601.50
2022-09-15T23:10:28.107Z,100602.34
2022-09-15T23:12:54.462Z,100598.88
2022-09-15T23:15:20.845Z,100609.47
2022-09-15T23:17:47.383Z,100603.16
2022-09-15T23:20:13.736Z,100603.56
2022-09-15T23:22:40.178Z,100609.91
2022-09-15T23:25:06.910Z,100609.06
2022-09-15T23:27:33.319Z,100612.13
2022-09-15T23:29:59.692Z,100606.81
2022-09-15T23:32:26.095Z,100605.38
2022-09-15T23:34:53.310Z,100606.84
2022-09-15T23:37:19.664Z,100600.94
2022-09-15T23:39:46.079Z,100598.66
2022-09-15T23:42:16.763Z,100602.56
2022-09-15T23:44:45.081Z,100602.75
2022-09-15T23:47:11.461Z,100605.63
2022-09-15T23:49:37.853Z,100611.53
2022-09-15T23:52:04.178Z,100602.34
2022-09-15T23:54:30.651Z,100599.72
2022-09-15T23:56:57.128Z,100601.75
2022-09-15T23:59:23.482Z,100590.56
